岩国飛行場の過去48時間の天気

岩国飛行場 (Iwakuni)

現在時刻: 12/4 13:47 JST (12/4 04:47 UTC) 以下の時間は現地時間です。

過去48時間のMETAR気象情報
時間 風向 風速(m/s) 視程 気温(℃) 湿度(%) 気圧(hPa) 天気現象
4 12:55 3 10km以上 13.3 45 1023.4
4 11:55 静穏 0 10km以上 12.2 49 1024.6
4 10:55 静穏 0 10km以上 11.7 52 1025.1
4 09:55 静穏 0 10km以上 11.1 54 1025.2
4 08:55 西北西 3 10km以上 8.3 60 1024.8
4 07:55 北西 5 10km以上 6.1 68 1024.7
4 06:55 西北西 4 10km以上 4.4 76 1024.6
4 05:55 西北西 4 10km以上 5 73 1024.7
4 04:55 北西 4 10km以上 5 73 1024.6
4 03:55 西北西 4 10km以上 5.6 73 1024.4
4 02:55 北西 5 10km以上 6.1 70 1024.5
4 01:55 西北西 4 10km以上 6.1 68 1024.4
4 00:55 北西 4 10km以上 6.7 67 1024.3
3 23:55 西北西 4 10km以上 7.2 68 1024.4
3 22:55 西北西 4 10km以上 7.2 68 1024.5
3 21:55 北西 3 10km以上 7.8 65 1024.4
3 20:55 西北西 4 10km以上 8.3 65 1024.3
3 19:55 西北西 3 10km以上 8.9 63 1023.7
3 18:55 北西 3 10km以上 10 56 1023.4
3 17:55 西北西 3 10km以上 11.1 52 1022.9
3 16:55 西北西 5 10km以上 12.2 55 1022.2
3 15:55 北西 5 10km以上 12.8 51 1021.6
3 14:55 西北西 5 10km以上 15 41 1021
3 13:55 西 4 10km以上 15.6 36 1021.3
3 12:55 西北西 6 10km以上 15 37 1021.2
3 11:55 北北西 4 10km以上 15 41 1022.1
3 10:55 西 4 10km以上 13.9 49 1023.1
3 09:55 北西 3 10km以上 11.1 63 1024
3 08:55 北西 4 10km以上 8.3 74 1024.5
3 07:55 西北西 4 10km以上 7.2 76 1024.1
3 06:55 西北西 4 10km以上 6.1 79 1023.5
3 05:55 西北西 3 10km以上 6.1 79 1022.1
3 04:55 西北西 5 10km以上 6.7 79 1022
3 03:55 北西 3 10km以上 6.7 79 1022.5
3 02:55 西北西 2 10km以上 7.2 76 1023.1
3 01:55 北西 3 10km以上 7.8 73 1023.5
3 00:55 西北西 4 10km以上 7.8 76 1023.7
2 23:55 西北西 4 10km以上 8.3 76 1024.2
2 22:55 西北西 5 10km以上 8.9 73 1024.8
2 21:55 西北西 4 10km以上 9.4 71 1024.7
2 20:55 西北西 4 10km以上 9.4 71 1024.6
2 19:55 西北西 4 10km以上 10 71 1024.2
2 18:55 北西 3 10km以上 11.1 66 1024.3
2 17:55 西北西 2 10km以上 11.7 61 1023.8
2 16:55 西南西 2 10km以上 12.8 55 1023.2
2 15:55 南西 2 10km以上 14.4 49 1023.1
2 14:55 2 10km以上 13.9 49 1022.5
2 13:55 南南西 3 10km以上 13.9 53 1022.9
RJOI 040355Z VRB05KT 9999 SCT025 SCT120 13/02 A3022 RMK SLP234 T01330017
RJOI 040255Z 00000KT 9999 SCT025 SCT120 12/02 A3026 RMK SLP246 T01220017 58003
RJOI 040155Z 00000KT 9999 FEW025 SCT120 12/02 A3027 RMK SLP251 T01170022
RJOI 040055Z 00000KT 9999 FEW010 FEW025 FEW120 11/02 A3028 RMK SLP252 T01110022
RJOI 032355Z 30006KT 9999 FEW010 FEW040 08/01 A3027 RMK SLP248 T00830011 10083 20044 55000
RJOI 032255Z 31009KT 9999 FEW010 FEW040 06/01 A3026 RMK SLP247 T00610006
RJOI 032155Z 30007KT 9999 FEW010 FEW040 04/01 A3026 RMK SLP246 T00440006
RJOI 032055Z 30008KT 9999 FEW030 FEW070 05/01 A3026 RMK SLP247 T00500006 53003
RJOI 031955Z 31007KT 9999 FEW030 05/01 A3026 RMK SLP246 T00500006
RJOI 031855Z 30007KT 9999 FEW015 FEW030 BKN060 06/01 A3025 RMK SLP244 T00560011
RJOI 031755Z 31009KT 9999 FEW015 FEW030 SCT060 06/01 A3026 RMK SLP245 T00610011 10083 20056 54000
RJOI 031655Z 30008KT 9999 FEW030 06/01 A3025 RMK SLP244 T00610006
RJOI 031555Z 31008KT 9999 FEW030 07/01 A3025 RMK SLP243 T00670011
RJOI 031455Z 30007KT 9999 FEW030 BKN065 07/02 A3025 RMK SLP244 T00720017 401610061 51003
RJOI 031355Z 30007KT 9999 FEW030 BKN060 07/02 A3026 RMK SLP245 T00720017
RJOI 031255Z 31006KT 9999 FEW030 FEW050 08/02 A3025 RMK SLP244 T00780017
RJOI 031155Z 30007KT 9999 FEW030 FEW050 08/02 A3025 RMK SLP243 T00830022 10144 20083 51014
RJOI 031055Z 30006KT 9999 FEW030 FEW050 09/02 A3023 RMK SLP237 T00890022
RJOI 030955Z 31006KT 9999 SCT025 SCT040 10/02 A3022 RMK SLP234 T01000017
RJOI 030855Z 30006KT 9999 SCT025 SCT040 11/02 A3021 RMK SLP229 T01110017 53017
RJOI 030755Z 30009KT 9999 SCT025 SCT040 12/03 A3019 RMK SLP222 T01220033
RJOI 030655Z 31009KT 9999 SCT025 SCT040 13/03 A3017 RMK SLP216 T01280028
RJOI 030555Z 30010KT 9999 SCT025 SCT040 15/02 A3015 RMK SLP210 T01500017 10161 20083 56010
RJOI 030455Z 28008G18KT 9999 FEW020 BKN030 BKN050 16/01 A3016 RMK SLP213 T01560006
RJOI 030355Z 30012KT 9999 FEW025 SCT030 SCT070 15/01 A3016 RMK SLP212 T01500006
RJOI 030255Z 33007G17KT 9999 SCT025 BKN030 BKN050 15/02 A3019 RMK SLP221 T01500017 58024
RJOI 030155Z 28008KT 9999 SCT025 BKN040 BKN060 14/03 A3021 RMK SLP231 T01390033
RJOI 030055Z 31005KT 9999 FEW025 FEW040 SCT060 11/04 A3024 RMK SLP240 T01110044
RJOI 022355Z 31007KT 9999 FEW004 BKN030 BKN040 08/04 A3026 RMK SLP245 T00830039 10083 20061 51024
RJOI 022255Z 30007KT 9999 FEW005 SCT020 BKN030 07/03 A3024 RMK SLP241 T00720033
RJOI 022155Z 30007KT 9999 FEW015 FEW025 06/03 A3023 RMK SLP235 T00610028
RJOI 022055Z 30006KT 9999 FEW025 06/03 A3019 RMK SLP221 T00610028 56010
RJOI 021955Z 30009KT 9999 FEW020 07/03 A3018 RMK SLP220 T00670033
RJOI 021855Z 31006KT 9999 FEW020 07/03 A3020 RMK SLP225 T00670033
RJOI 021755Z 29004KT 9999 FEW020 07/03 A3021 RMK SLP231 T00720033 10094 20072 57010
RJOI 021655Z 31005KT 9999 FEW020 FEW040 08/03 A3023 RMK SLP235 T00780033
RJOI 021555Z 30008KT 9999 FEW020 FEW040 08/04 A3023 RMK SLP237 T00780039
RJOI 021455Z 30008KT 9999 FEW020 08/04 A3025 RMK SLP242 T00830044 401500056 50000
RJOI 021355Z 30009KT 9999 FEW020 09/04 A3026 RMK SLP248 T00890044
RJOI 021255Z 30008KT 9999 FEW020 09/04 A3026 RMK SLP247 T00940044
RJOI 021155Z 30007KT 9999 FEW030 09/04 A3026 RMK SLP246 T00940044 10144 20089 51003
RJOI 021055Z 30007KT 9999 FEW030 10/05 A3025 RMK SLP242 T01000050
RJOI 020955Z 31005KT 9999 FEW030 FEW080 11/05 A3025 RMK SLP243 T01110050
RJOI 020855Z 30004KT 9999 FEW030 12/04 A3024 RMK SLP238 T01170044 53014
RJOI 020755Z 24004KT 9999 FEW030 FEW090 13/04 A3022 RMK SLP232 T01280039
RJOI 020655Z 23004KT 9999 FEW030 BKN060 14/04 A3022 RMK SLP231 T01440039
RJOI 020555Z 17004KT 9999 FEW030 SCT070 SCT120 14/03 A3020 RMK SLP225 T01390033 10150 20094 56024
RJOI 020455Z 20005KT 9999 FEW030 SCT060 BKN120 14/04 A3021 RMK SLP229 T01390044